sensor_id;sensor_type;location;lat;lon;timestamp;temperature;humidity
42617;DHT22;28250;52.320;0.360;2023-10-13T00:00:28;14.80;99.90
42617;DHT22;28250;52.320;0.360;2023-10-13T00:03:03;14.80;99.90
42617;DHT22;28250;52.320;0.360;2023-10-13T00:05:31;14.90;99.90
42617;DHT22;28250;52.320;0.360;2023-10-13T00:08:02;14.90;99.90
42617;DHT22;28250;52.320;0.360;2023-10-13T00:10:31;14.90;99.90
42617;DHT22;28250;52.320;0.360;2023-10-13T00:12:59;14.90;99.90
42617;DHT22;28250;52.320;0.360;2023-10-13T00:15:45;15.00;99.90
42617;DHT22;28250;52.320;0.360;2023-10-13T00:18:32;15.00;99.90
42617;DHT22;28250;52.320;0.360;2023-10-13T00:21:08;15.00;99.90
42617;DHT22;28250;52.320;0.360;2023-10-13T00:23:42;15.00;99.90
42617;DHT22;28250;52.320;0.360;2023-10-13T00:26:22;15.00;99.90
42617;DHT22;28250;52.320;0.360;2023-10-13T00:29:01;15.00;99.90
42617;DHT22;28250;52.320;0.360;2023-10-13T00:31:41;15.00;99.90
42617;DHT22;28250;52.320;0.360;2023-10-13T00:34:14;15.00;99.90
42617;DHT22;28250;52.320;0.360;2023-10-13T00:36:58;15.00;99.90
42617;DHT22;28250;52.320;0.360;2023-10-13T00:39:53;15.10;99.90
42617;DHT22;28250;52.320;0.360;2023-10-13T00:42:22;15.10;99.90
42617;DHT22;28250;52.320;0.360;2023-10-13T00:45:14;15.00;99.90
42617;DHT22;28250;52.320;0.360;2023-10-13T00:47:43;15.00;99.90
42617;DHT22;28250;52.320;0.360;2023-10-13T00:50:23;15.00;99.90
42617;DHT22;28250;52.320;0.360;2023-10-13T00:52:49;15.10;99.90
42617;DHT22;28250;52.320;0.360;2023-10-13T00:55:21;15.00;99.90
42617;DHT22;28250;52.320;0.360;2023-10-13T00:57:51;15.10;99.90
42617;DHT22;28250;52.320;0.360;2023-10-13T01:00:20;15.00;99.90
42617;DHT22;28250;52.320;0.360;2023-10-13T01:02:55;15.00;99.90
42617;DHT22;28250;52.320;0.360;2023-10-13T01:05:31;15.00;99.90
42617;DHT22;28250;52.320;0.360;2023-10-13T01:08:01;15.00;99.90
42617;DHT22;28250;52.320;0.360;2023-10-13T01:10:27;15.00;99.90
42617;DHT22;28250;52.320;0.360;2023-10-13T01:12:58;15.00;99.90
42617;DHT22;28250;52.320;0.360;2023-10-13T01:15:28;15.00;99.90
42617;DHT22;28250;52.320;0.360;2023-10-13T01:18:09;15.00;99.90
42617;DHT22;28250;52.320;0.360;2023-10-13T01:20:39;14.90;99.90
42617;DHT22;28250;52.320;0.360;2023-10-13T01:23:12;14.90;99.90
42617;DHT22;28250;52.320;0.360;2023-10-13T01:25:45;14.90;99.90
42617;DHT22;28250;52.320;0.360;2023-10-13T01:28:12;14.90;99.90
42617;DHT22;28250;52.320;0.360;2023-10-13T01:30:45;14.90;99.90
42617;DHT22;28250;52.320;0.360;2023-10-13T01:33:18;14.80;99.90
42617;DHT22;28250;52.320;0.360;2023-10-13T01:35:55;14.80;99.90
42617;DHT22;28250;52.320;0.360;2023-10-13T01:38:24;14.80;99.90
42617;DHT22;28250;52.320;0.360;2023-10-13T01:40:54;14.80;99.90
42617;DHT22;28250;52.320;0.360;2023-10-13T01:43:22;14.80;99.90
42617;DHT22;28250;52.320;0.360;2023-10-13T01:45:49;14.90;99.90
42617;DHT22;28250;52.320;0.360;2023-10-13T01:48:16;14.90;99.90
42617;DHT22;28250;52.320;0.360;2023-10-13T01:50:47;14.80;99.90
42617;DHT22;28250;52.320;0.360;2023-10-13T01:53:14;14.90;99.90
42617;DHT22;28250;52.320;0.360;2023-10-13T01:55:43;14.80;99.90
42617;DHT22;28250;52.320;0.360;2023-10-13T01:58:11;14.80;99.90
42617;DHT22;28250;52.320;0.360;2023-10-13T02:00:45;14.90;99.90
42617;DHT22;28250;52.320;0.360;2023-10-13T02:03:15;14.90;99.90
42617;DHT22;28250;52.320;0.360;2023-10-13T02:05:46;14.80;99.90
42617;DHT22;28250;52.320;0.360;2023-10-13T02:08:18;14.90;99.90
42617;DHT22;28250;52.320;0.360;2023-10-13T02:10:53;14.90;99.90
42617;DHT22;28250;52.320;0.360;2023-10-13T02:13:23;14.90;99.90
42617;DHT22;28250;52.320;0.360;2023-10-13T02:15:55;14.90;99.90
42617;DHT22;28250;52.320;0.360;2023-10-13T02:18:24;14.90;99.90
42617;DHT22;28250;52.320;0.360;2023-10-13T02:21:01;14.90;99.90
42617;DHT22;28250;52.320;0.360;2023-10-13T02:23:30;14.90;99.90
42617;DHT22;28250;52.320;0.360;2023-10-13T02:25:59;15.00;99.90
42617;DHT22;28250;52.320;0.360;2023-10-13T02:28:28;15.00;99.90
42617;DHT22;28250;52.320;0.360;2023-10-13T02:31:02;15.00;99.90
42617;DHT22;28250;52.320;0.360;2023-10-13T02:33:30;15.10;99.90
42617;DHT22;28250;52.320;0.360;2023-10-13T02:36:01;15.10;99.90
42617;DHT22;28250;52.320;0.360;2023-10-13T02:38:33;15.20;99.90
42617;DHT22;28250;52.320;0.360;2023-10-13T02:41:12;15.20;99.90
42617;DHT22;28250;52.320;0.360;2023-10-13T02:43:45;15.30;99.90
42617;DHT22;28250;52.320;0.360;2023-10-13T02:46:11;15.30;99.90
42617;DHT22;28250;52.320;0.360;2023-10-13T02:48:41;15.40;99.90
42617;DHT22;28250;52.320;0.360;2023-10-13T02:51:12;15.40;99.90
42617;DHT22;28250;52.320;0.360;2023-10-13T02:53:43;15.40;99.90
42617;DHT22;28250;52.320;0.360;2023-10-13T02:56:12;15.40;99.90
42617;DHT22;28250;52.320;0.360;2023-10-13T02:58:40;15.50;99.90
42617;DHT22;28250;52.320;0.360;2023-10-13T03:01:11;15.50;99.90
42617;DHT22;28250;52.320;0.360;2023-10-13T03:03:44;15.40;99.90
42617;DHT22;28250;52.320;0.360;2023-10-13T03:06:16;15.40;99.90
42617;DHT22;28250;52.320;0.360;2023-10-13T03:08:48;15.40;99.90
42617;DHT22;28250;52.320;0.360;2023-10-13T03:11:14;15.40;99.90
42617;DHT22;28250;52.320;0.360;2023-10-13T03:13:47;15.40;99.90
42617;DHT22;28250;52.320;0.360;2023-10-13T03:16:14;15.30;99.90
42617;DHT22;28250;52.320;0.360;2023-10-13T03:18:47;15.30;99.90
42617;DHT22;28250;52.320;0.360;2023-10-13T03:21:23;15.30;99.90
42617;DHT22;28250;52.320;0.360;2023-10-13T03:23:58;15.30;99.90
42617;DHT22;28250;52.320;0.360;2023-10-13T03:26:32;15.20;99.90
42617;DHT22;28250;52.320;0.360;2023-10-13T03:29:02;15.20;99.90
42617;DHT22;28250;52.320;0.360;2023-10-13T03:31:39;15.20;99.90
42617;DHT22;28250;52.320;0.360;2023-10-13T03:34:05;15.20;99.90
42617;DHT22;28250;52.320;0.360;2023-10-13T03:36:38;15.10;99.90
42617;DHT22;28250;52.320;0.360;2023-10-13T03:39:23;15.10;99.90
42617;DHT22;28250;52.320;0.360;2023-10-13T03:41:56;15.10;99.90
42617;DHT22;28250;52.320;0.360;2023-10-13T03:44:23;15.10;99.90
42617;DHT22;28250;52.320;0.360;2023-10-13T03:46:50;15.10;99.90
42617;DHT22;28250;52.320;0.360;2023-10-13T03:49:19;15.00;99.90
42617;DHT22;28250;52.320;0.360;2023-10-13T03:51:51;15.00;99.90
42617;DHT22;28250;52.320;0.360;2023-10-13T03:54:20;15.00;99.90
42617;DHT22;28250;52.320;0.360;2023-10-13T03:56:46;15.00;99.90
42617;DHT22;28250;52.320;0.360;2023-10-13T03:59:17;15.00;99.90
42617;DHT22;28250;52.320;0.360;2023-10-13T04:01:45;14.90;99.90
42617;DHT22;28250;52.320;0.360;2023-10-13T04:04:14;14.90;99.90
42617;DHT22;28250;52.320;0.360;2023-10-13T04:06:47;14.90;99.90
42617;DHT22;28250;52.320;0.360;2023-10-13T04:09:21;14.90;99.90
42617;DHT22;28250;52.320;0.360;2023-10-13T04:12:08;14.90;99.90
42617;DHT22;28250;52.320;0.360;2023-10-13T04:14:42;14.90;99.90
42617;DHT22;28250;52.320;0.360;2023-10-13T04:17:12;14.90;99.90
42617;DHT22;28250;52.320;0.360;2023-10-13T04:19:48;14.90;99.90
42617;DHT22;28250;52.320;0.360;2023-10-13T04:22:40;14.90;99.90
42617;DHT22;28250;52.320;0.360;2023-10-13T04:25:25;14.90;99.90
42617;DHT22;28250;52.320;0.360;2023-10-13T04:28:14;14.90;99.90
42617;DHT22;28250;52.320;0.360;2023-10-13T04:30:48;15.00;99.90
42617;DHT22;28250;52.320;0.360;2023-10-13T04:33:17;15.00;99.90
42617;DHT22;28250;52.320;0.360;2023-10-13T04:36:14;15.10;99.90
42617;DHT22;28250;52.320;0.360;2023-10-13T04:38:54;15.10;99.90
42617;DHT22;28250;52.320;0.360;2023-10-13T04:41:38;15.20;99.90
42617;DHT22;28250;52.320;0.360;2023-10-13T04:44:06;15.20;99.90
42617;DHT22;28250;52.320;0.360;2023-10-13T04:46:51;15.30;99.90
42617;DHT22;28250;52.320;0.360;2023-10-13T04:49:19;15.40;99.90
42617;DHT22;28250;52.320;0.360;2023-10-13T04:52:03;15.40;99.90
42617;DHT22;28250;52.320;0.360;2023-10-13T04:54:37;15.50;99.90
42617;DHT22;28250;52.320;0.360;2023-10-13T04:57:21;15.50;99.90
42617;DHT22;28250;52.320;0.360;2023-10-13T04:59:51;15.50;99.90
42617;DHT22;28250;52.320;0.360;2023-10-13T05:02:41;15.50;99.90
42617;DHT22;28250;52.320;0.360;2023-10-13T05:05:21;15.60;99.90
42617;DHT22;28250;52.320;0.360;2023-10-13T05:08:07;15.50;99.90
42617;DHT22;28250;52.320;0.360;2023-10-13T05:10:52;15.60;99.90
42617;DHT22;28250;52.320;0.360;2023-10-13T05:13:37;15.60;99.90
42617;DHT22;28250;52.320;0.360;2023-10-13T05:16:21;15.70;99.90
42617;DHT22;28250;52.320;0.360;2023-10-13T05:19:06;15.70;99.90
42617;DHT22;28250;52.320;0.360;2023-10-13T05:21:51;15.70;99.90
42617;DHT22;28250;52.320;0.360;2023-10-13T05:24:36;15.80;99.90
42617;DHT22;28250;52.320;0.360;2023-10-13T05:27:21;15.90;99.90
42617;DHT22;28250;52.320;0.360;2023-10-13T05:30:06;15.90;99.90
42617;DHT22;28250;52.320;0.360;2023-10-13T05:32:51;16.00;99.90
42617;DHT22;28250;52.320;0.360;2023-10-13T05:35:35;16.10;99.90
42617;DHT22;28250;52.320;0.360;2023-10-13T05:38:20;16.10;99.90
42617;DHT22;28250;52.320;0.360;2023-10-13T05:41:05;16.20;99.90
42617;DHT22;28250;52.320;0.360;2023-10-13T05:43:50;16.20;99.90
42617;DHT22;28250;52.320;0.360;2023-10-13T05:46:35;16.30;99.90
42617;DHT22;28250;52.320;0.360;2023-10-13T05:49:08;16.30;99.90
42617;DHT22;28250;52.320;0.360;2023-10-13T05:51:34;16.30;99.90
42617;DHT22;28250;52.320;0.360;2023-10-13T05:54:14;16.40;99.90
42617;DHT22;28250;52.320;0.360;2023-10-13T05:56:49;16.50;99.90
42617;DHT22;28250;52.320;0.360;2023-10-13T05:59:36;16.50;99.90
42617;DHT22;28250;52.320;0.360;2023-10-13T06:02:23;16.60;99.90
42617;DHT22;28250;52.320;0.360;2023-10-13T06:05:11;16.60;99.90
42617;DHT22;28250;52.320;0.360;2023-10-13T06:07:57;16.60;99.90
42617;DHT22;28250;52.320;0.360;2023-10-13T06:10:43;16.60;99.90
42617;DHT22;28250;52.320;0.360;2023-10-13T06:13:28;16.60;99.90
42617;DHT22;28250;52.320;0.360;2023-10-13T06:16:15;16.60;99.90
42617;DHT22;28250;52.320;0.360;2023-10-13T06:19:00;16.60;99.90
42617;DHT22;28250;52.320;0.360;2023-10-13T06:21:45;16.70;99.90
42617;DHT22;28250;52.320;0.360;2023-10-13T06:24:29;16.70;99.90
42617;DHT22;28250;52.320;0.360;2023-10-13T06:27:15;16.80;99.90
42617;DHT22;28250;52.320;0.360;2023-10-13T06:30:00;16.80;99.90
42617;DHT22;28250;52.320;0.360;2023-10-13T06:32:31;16.80;99.90
42617;DHT22;28250;52.320;0.360;2023-10-13T06:34:59;16.90;99.90
42617;DHT22;28250;52.320;0.360;2023-10-13T06:37:31;16.90;99.90
42617;DHT22;28250;52.320;0.360;2023-10-13T06:40:00;16.90;99.90
42617;DHT22;28250;52.320;0.360;2023-10-13T06:42:40;16.90;99.90
42617;DHT22;28250;52.320;0.360;2023-10-13T06:45:09;17.00;99.90
42617;DHT22;28250;52.320;0.360;2023-10-13T06:47:38;17.00;99.90
42617;DHT22;28250;52.320;0.360;2023-10-13T06:50:14;17.20;99.90
42617;DHT22;28250;52.320;0.360;2023-10-13T06:52:45;17.20;99.90
42617;DHT22;28250;52.320;0.360;2023-10-13T06:55:15;17.30;99.90
42617;DHT22;28250;52.320;0.360;2023-10-13T06:57:50;17.30;99.90
42617;DHT22;28250;52.320;0.360;2023-10-13T07:00:17;17.40;99.90
42617;DHT22;28250;52.320;0.360;2023-10-13T07:03:00;17.40;99.90
42617;DHT22;28250;52.320;0.360;2023-10-13T07:05:38;17.50;99.90
42617;DHT22;28250;52.320;0.360;2023-10-13T07:08:08;17.60;99.90
42617;DHT22;28250;52.320;0.360;2023-10-13T07:10:39;17.60;99.90
42617;DHT22;28250;52.320;0.360;2023-10-13T07:13:28;17.50;99.90
42617;DHT22;28250;52.320;0.360;2023-10-13T07:15:55;17.50;99.90
42617;DHT22;28250;52.320;0.360;2023-10-13T07:18:26;17.60;99.90
42617;DHT22;28250;52.320;0.360;2023-10-13T07:20:58;17.70;99.90
42617;DHT22;28250;52.320;0.360;2023-10-13T07:23:25;17.70;99.90
42617;DHT22;28250;52.320;0.360;2023-10-13T07:25:55;17.70;99.90
42617;DHT22;28250;52.320;0.360;2023-10-13T07:28:30;17.90;99.90
42617;DHT22;28250;52.320;0.360;2023-10-13T07:31:03;17.90;99.90
42617;DHT22;28250;52.320;0.360;2023-10-13T07:33:29;17.90;99.90
42617;DHT22;28250;52.320;0.360;2023-10-13T07:36:06;18.00;99.90
42617;DHT22;28250;52.320;0.360;2023-10-13T07:38:44;18.10;99.90
42617;DHT22;28250;52.320;0.360;2023-10-13T07:41:15;18.10;99.90
42617;DHT22;28250;52.320;0.360;2023-10-13T07:43:41;18.10;99.90
42617;DHT22;28250;52.320;0.360;2023-10-13T07:46:09;18.10;99.90
42617;DHT22;28250;52.320;0.360;2023-10-13T07:48:41;18.10;99.90
42617;DHT22;28250;52.320;0.360;2023-10-13T07:51:11;18.20;99.90
42617;DHT22;28250;52.320;0.360;2023-10-13T07:53:42;18.20;99.90
42617;DHT22;28250;52.320;0.360;2023-10-13T07:56:12;18.30;99.90
42617;DHT22;28250;52.320;0.360;2023-10-13T07:58:39;18.30;99.90
42617;DHT22;28250;52.320;0.360;2023-10-13T08:01:17;18.30;99.90
42617;DHT22;28250;52.320;0.360;2023-10-13T08:03:43;18.30;99.90
42617;DHT22;28250;52.320;0.360;2023-10-13T08:06:11;18.40;99.90
42617;DHT22;28250;52.320;0.360;2023-10-13T08:08:43;18.50;99.90
42617;DHT22;28250;52.320;0.360;2023-10-13T08:11:11;18.50;99.90
42617;DHT22;28250;52.320;0.360;2023-10-13T08:13:56;18.60;99.90
42617;DHT22;28250;52.320;0.360;2023-10-13T08:16:39;18.60;99.90
42617;DHT22;28250;52.320;0.360;2023-10-13T08:19:13;18.60;99.90
42617;DHT22;28250;52.320;0.360;2023-10-13T08:21:43;18.60;99.90
42617;DHT22;28250;52.320;0.360;2023-10-13T08:24:23;18.50;99.90
42617;DHT22;28250;52.320;0.360;2023-10-13T08:27:07;18.50;99.90
42617;DHT22;28250;52.320;0.360;2023-10-13T08:29:52;18.60;99.90
42617;DHT22;28250;52.320;0.360;2023-10-13T08:32:22;18.60;99.90
42617;DHT22;28250;52.320;0.360;2023-10-13T08:34:56;18.60;99.90
42617;DHT22;28250;52.320;0.360;2023-10-13T08:37:23;18.50;99.90
42617;DHT22;28250;52.320;0.360;2023-10-13T08:39:56;18.50;99.90
42617;DHT22;28250;52.320;0.360;2023-10-13T08:42:34;18.50;99.90
42617;DHT22;28250;52.320;0.360;2023-10-13T08:45:08;18.50;99.90
42617;DHT22;28250;52.320;0.360;2023-10-13T08:47:50;18.50;99.90
42617;DHT22;28250;52.320;0.360;2023-10-13T08:50:47;18.50;99.90
42617;DHT22;28250;52.320;0.360;2023-10-13T08:58:28;18.40;99.90
42617;DHT22;28250;52.320;0.360;2023-10-13T09:01:13;18.40;99.90
42617;DHT22;28250;52.320;0.360;2023-10-13T09:03:58;18.40;99.90
42617;DHT22;28250;52.320;0.360;2023-10-13T09:06:46;18.40;99.90
42617;DHT22;28250;52.320;0.360;2023-10-13T09:09:46;18.50;99.90
42617;DHT22;28250;52.320;0.360;2023-10-13T09:12:16;18.50;99.90
42617;DHT22;28250;52.320;0.360;2023-10-13T09:14:53;18.50;99.90
42617;DHT22;28250;52.320;0.360;2023-10-13T09:17:25;18.40;99.90
42617;DHT22;28250;52.320;0.360;2023-10-13T09:20:09;18.40;99.90
42617;DHT22;28250;52.320;0.360;2023-10-13T09:22:48;18.50;99.90
42617;DHT22;28250;52.320;0.360;2023-10-13T09:25:31;18.50;99.90
42617;DHT22;28250;52.320;0.360;2023-10-13T09:28:10;18.50;99.90
42617;DHT22;28250;52.320;0.360;2023-10-13T09:33:13;18.60;99.90
42617;DHT22;28250;52.320;0.360;2023-10-13T09:35:44;18.60;99.90
42617;DHT22;28250;52.320;0.360;2023-10-13T09:38:16;18.60;99.90
42617;DHT22;28250;52.320;0.360;2023-10-13T09:40:44;18.70;99.90
42617;DHT22;28250;52.320;0.360;2023-10-13T09:43:17;18.80;99.90
42617;DHT22;28250;52.320;0.360;2023-10-13T09:45:46;18.80;99.90
42617;DHT22;28250;52.320;0.360;2023-10-13T09:48:32;18.80;99.90
42617;DHT22;28250;52.320;0.360;2023-10-13T09:51:15;18.80;99.90
42617;DHT22;28250;52.320;0.360;2023-10-13T09:54:10;18.90;99.90
42617;DHT22;28250;52.320;0.360;2023-10-13T09:56:47;18.80;99.90
42617;DHT22;28250;52.320;0.360;2023-10-13T09:59:32;18.90;99.90
42617;DHT22;28250;52.320;0.360;2023-10-13T10:02:06;18.90;99.90
42617;DHT22;28250;52.320;0.360;2023-10-13T10:04:54;18.90;99.90
42617;DHT22;28250;52.320;0.360;2023-10-13T10:07:37;19.00;99.90
42617;DHT22;28250;52.320;0.360;2023-10-13T10:10:05;18.90;99.90
42617;DHT22;28250;52.320;0.360;2023-10-13T10:12:52;18.90;99.90
42617;DHT22;28250;52.320;0.360;2023-10-13T10:15:34;18.90;99.90
42617;DHT22;28250;52.320;0.360;2023-10-13T10:18:02;18.90;99.90
42617;DHT22;28250;52.320;0.360;2023-10-13T10:20:34;19.00;99.90
42617;DHT22;28250;52.320;0.360;2023-10-13T10:23:29;19.10;99.90
42617;DHT22;28250;52.320;0.360;2023-10-13T10:26:15;19.30;99.90
42617;DHT22;28250;52.320;0.360;2023-10-13T10:28:46;19.30;99.90
42617;DHT22;28250;52.320;0.360;2023-10-13T10:31:13;19.40;99.90
42617;DHT22;28250;52.320;0.360;2023-10-13T10:33:45;19.70;99.90
42617;DHT22;28250;52.320;0.360;2023-10-13T10:36:29;19.70;99.90
42617;DHT22;28250;52.320;0.360;2023-10-13T10:38:57;19.80;99.90
42617;DHT22;28250;52.320;0.360;2023-10-13T10:41:30;19.80;99.90
42617;DHT22;28250;52.320;0.360;2023-10-13T10:44:10;19.80;99.90
42617;DHT22;28250;52.320;0.360;2023-10-13T10:46:43;19.90;99.90
42617;DHT22;28250;52.320;0.360;2023-10-13T10:49:21;19.80;99.90
42617;DHT22;28250;52.320;0.360;2023-10-13T10:52:00;19.80;99.90
42617;DHT22;28250;52.320;0.360;2023-10-13T10:54:33;19.90;99.90
42617;DHT22;28250;52.320;0.360;2023-10-13T10:57:00;20.00;99.90
42617;DHT22;28250;52.320;0.360;2023-10-13T10:59:43;20.00;99.90
42617;DHT22;28250;52.320;0.360;2023-10-13T11:02:10;20.10;99.90
42617;DHT22;28250;52.320;0.360;2023-10-13T11:04:41;20.20;99.90
42617;DHT22;28250;52.320;0.360;2023-10-13T11:07:25;20.50;99.90
42617;DHT22;28250;52.320;0.360;2023-10-13T11:09:53;20.60;99.90
42617;DHT22;28250;52.320;0.360;2023-10-13T11:12:31;20.40;99.90
42617;DHT22;28250;52.320;0.360;2023-10-13T11:15:06;20.30;99.90
42617;DHT22;28250;52.320;0.360;2023-10-13T11:17:40;20.50;99.90
42617;DHT22;28250;52.320;0.360;2023-10-13T11:20:16;20.80;99.90
42617;DHT22;28250;52.320;0.360;2023-10-13T11:22:47;20.90;99.90
42617;DHT22;28250;52.320;0.360;2023-10-13T11:25:25;21.10;99.90
42617;DHT22;28250;52.320;0.360;2023-10-13T11:28:14;21.20;99.90
42617;DHT22;28250;52.320;0.360;2023-10-13T11:30:46;21.10;99.90
42617;DHT22;28250;52.320;0.360;2023-10-13T11:33:17;20.90;99.90
42617;DHT22;28250;52.320;0.360;2023-10-13T11:35:45;20.70;99.90
42617;DHT22;28250;52.320;0.360;2023-10-13T11:40:54;20.50;99.90
42617;DHT22;28250;52.320;0.360;2023-10-13T11:49:08;20.70;99.90
42617;DHT22;28250;52.320;0.360;2023-10-13T11:51:48;20.90;99.90
42617;DHT22;28250;52.320;0.360;2023-10-13T11:54:19;21.00;99.90
42617;DHT22;28250;52.320;0.360;2023-10-13T11:56:48;20.80;99.90
42617;DHT22;28250;52.320;0.360;2023-10-13T11:59:15;20.60;99.90
42617;DHT22;28250;52.320;0.360;2023-10-13T12:04:32;20.40;99.90
42617;DHT22;28250;52.320;0.360;2023-10-13T12:06:58;20.40;99.90
42617;DHT22;28250;52.320;0.360;2023-10-13T12:09:43;20.30;99.90
42617;DHT22;28250;52.320;0.360;2023-10-13T12:12:25;20.40;99.90
42617;DHT22;28250;52.320;0.360;2023-10-13T12:14:52;20.30;99.90
42617;DHT22;28250;52.320;0.360;2023-10-13T12:17:27;20.30;99.90
42617;DHT22;28250;52.320;0.360;2023-10-13T12:19:57;20.40;99.90
42617;DHT22;28250;52.320;0.360;2023-10-13T12:22:24;20.50;99.90
42617;DHT22;28250;52.320;0.360;2023-10-13T12:24:56;20.50;99.90
42617;DHT22;28250;52.320;0.360;2023-10-13T12:27:22;20.90;99.90
42617;DHT22;28250;52.320;0.360;2023-10-13T12:29:51;21.30;99.90
42617;DHT22;28250;52.320;0.360;2023-10-13T12:32:18;21.20;99.90
42617;DHT22;28250;52.320;0.360;2023-10-13T12:34:57;21.50;99.90
42617;DHT22;28250;52.320;0.360;2023-10-13T12:37:28;21.60;99.90
42617;DHT22;28250;52.320;0.360;2023-10-13T12:42:54;21.70;99.90
42617;DHT22;28250;52.320;0.360;2023-10-13T12:45:40;21.60;99.90
42617;DHT22;28250;52.320;0.360;2023-10-13T12:48:25;21.20;99.90
42617;DHT22;28250;52.320;0.360;2023-10-13T12:51:09;20.80;99.90
42617;DHT22;28250;52.320;0.360;2023-10-13T12:53:55;20.70;99.90
42617;DHT22;28250;52.320;0.360;2023-10-13T12:56:30;20.50;99.90
42617;DHT22;28250;52.320;0.360;2023-10-13T12:58:56;20.50;99.90
42617;DHT22;28250;52.320;0.360;2023-10-13T13:01:24;20.50;99.90
42617;DHT22;28250;52.320;0.360;2023-10-13T13:03:52;20.40;99.90
42617;DHT22;28250;52.320;0.360;2023-10-13T13:06:23;20.20;99.90
42617;DHT22;28250;52.320;0.360;2023-10-13T13:08:59;20.10;99.90
42617;DHT22;28250;52.320;0.360;2023-10-13T13:11:26;20.00;99.90
42617;DHT22;28250;52.320;0.360;2023-10-13T13:13:55;19.90;99.90
42617;DHT22;28250;52.320;0.360;2023-10-13T13:16:21;19.70;99.90
42617;DHT22;28250;52.320;0.360;2023-10-13T13:18:50;19.50;99.90
42617;DHT22;28250;52.320;0.360;2023-10-13T13:21:16;19.40;99.90
42617;DHT22;28250;52.320;0.360;2023-10-13T13:23:53;19.30;99.90
42617;DHT22;28250;52.320;0.360;2023-10-13T13:26:22;19.30;99.90
42617;DHT22;28250;52.320;0.360;2023-10-13T13:28:49;19.30;99.90
42617;DHT22;28250;52.320;0.360;2023-10-13T13:31:20;19.20;99.90
42617;DHT22;28250;52.320;0.360;2023-10-13T13:33:52;19.30;99.90
42617;DHT22;28250;52.320;0.360;2023-10-13T13:36:18;19.30;99.90
42617;DHT22;28250;52.320;0.360;2023-10-13T13:38:45;19.40;99.90
42617;DHT22;28250;52.320;0.360;2023-10-13T13:41:13;19.50;99.90
42617;DHT22;28250;52.320;0.360;2023-10-13T13:43:46;19.60;99.90
42617;DHT22;28250;52.320;0.360;2023-10-13T13:46:17;19.60;99.90
42617;DHT22;28250;52.320;0.360;2023-10-13T13:48:43;19.60;99.90
42617;DHT22;28250;52.320;0.360;2023-10-13T13:51:14;19.60;99.90
42617;DHT22;28250;52.320;0.360;2023-10-13T13:53:41;19.70;99.90
42617;DHT22;28250;52.320;0.360;2023-10-13T13:56:11;19.70;99.90
42617;DHT22;28250;52.320;0.360;2023-10-13T13:58:46;19.80;99.90
42617;DHT22;28250;52.320;0.360;2023-10-13T14:01:14;19.80;99.90
42617;DHT22;28250;52.320;0.360;2023-10-13T14:03:41;19.90;99.90
42617;DHT22;28250;52.320;0.360;2023-10-13T14:06:15;19.90;99.90
42617;DHT22;28250;52.320;0.360;2023-10-13T14:08:59;19.90;99.90
42617;DHT22;28250;52.320;0.360;2023-10-13T14:11:30;19.90;99.90
42617;DHT22;28250;52.320;0.360;2023-10-13T14:14:14;20.10;99.90
42617;DHT22;28250;52.320;0.360;2023-10-13T14:17:07;20.10;99.90
42617;DHT22;28250;52.320;0.360;2023-10-13T14:19:34;20.00;99.90
42617;DHT22;28250;52.320;0.360;2023-10-13T14:22:01;20.00;99.90
42617;DHT22;28250;52.320;0.360;2023-10-13T14:24:35;19.90;99.90
42617;DHT22;28250;52.320;0.360;2023-10-13T14:27:09;19.90;99.90
42617;DHT22;28250;52.320;0.360;2023-10-13T14:29:41;19.80;99.90
42617;DHT22;28250;52.320;0.360;2023-10-13T14:32:11;19.80;99.90
42617;DHT22;28250;52.320;0.360;2023-10-13T14:34:39;19.70;99.90
42617;DHT22;28250;52.320;0.360;2023-10-13T14:37:06;19.70;99.90
42617;DHT22;28250;52.320;0.360;2023-10-13T14:39:33;19.70;99.90
42617;DHT22;28250;52.320;0.360;2023-10-13T14:42:05;19.70;99.90
42617;DHT22;28250;52.320;0.360;2023-10-13T14:44:35;19.60;99.90
42617;DHT22;28250;52.320;0.360;2023-10-13T14:47:02;19.50;99.90
42617;DHT22;28250;52.320;0.360;2023-10-13T14:49:31;19.50;99.90
42617;DHT22;28250;52.320;0.360;2023-10-13T14:51:57;19.50;99.90
42617;DHT22;28250;52.320;0.360;2023-10-13T14:54:25;19.30;99.90
42617;DHT22;28250;52.320;0.360;2023-10-13T14:57:01;19.10;99.90
42617;DHT22;28250;52.320;0.360;2023-10-13T14:59:28;18.90;99.90
42617;DHT22;28250;52.320;0.360;2023-10-13T15:02:01;18.80;99.90
42617;DHT22;28250;52.320;0.360;2023-10-13T15:04:28;18.70;99.90
42617;DHT22;28250;52.320;0.360;2023-10-13T15:06:59;18.70;99.90
42617;DHT22;28250;52.320;0.360;2023-10-13T15:09:29;18.60;99.90
42617;DHT22;28250;52.320;0.360;2023-10-13T15:11:55;18.40;99.90
42617;DHT22;28250;52.320;0.360;2023-10-13T15:14:22;18.30;99.90
42617;DHT22;28250;52.320;0.360;2023-10-13T15:16:49;18.20;99.90
42617;DHT22;28250;52.320;0.360;2023-10-13T15:19:15;18.20;99.90
42617;DHT22;28250;52.320;0.360;2023-10-13T15:21:44;18.00;99.90
42617;DHT22;28250;52.320;0.360;2023-10-13T15:24:14;17.80;99.90
42617;DHT22;28250;52.320;0.360;2023-10-13T15:26:45;17.60;99.90
42617;DHT22;28250;52.320;0.360;2023-10-13T15:29:18;17.50;99.90
42617;DHT22;28250;52.320;0.360;2023-10-13T15:31:51;17.40;99.90
42617;DHT22;28250;52.320;0.360;2023-10-13T15:34:27;17.30;99.90
42617;DHT22;28250;52.320;0.360;2023-10-13T15:36:54;17.20;99.90
42617;DHT22;28250;52.320;0.360;2023-10-13T15:39:22;17.10;99.90
42617;DHT22;28250;52.320;0.360;2023-10-13T15:41:57;17.10;99.90
42617;DHT22;28250;52.320;0.360;2023-10-13T15:44:28;17.10;99.90
42617;DHT22;28250;52.320;0.360;2023-10-13T15:46:58;17.00;99.90
42617;DHT22;28250;52.320;0.360;2023-10-13T15:49:25;17.00;99.90
42617;DHT22;28250;52.320;0.360;2023-10-13T15:51:54;17.00;99.90
42617;DHT22;28250;52.320;0.360;2023-10-13T15:54:23;16.90;99.90
42617;DHT22;28250;52.320;0.360;2023-10-13T15:56:50;16.70;99.90
42617;DHT22;28250;52.320;0.360;2023-10-13T15:59:16;16.70;99.90
42617;DHT22;28250;52.320;0.360;2023-10-13T16:01:43;16.60;99.90
42617;DHT22;28250;52.320;0.360;2023-10-13T16:04:12;16.60;99.90
42617;DHT22;28250;52.320;0.360;2023-10-13T16:06:43;16.50;99.90
42617;DHT22;28250;52.320;0.360;2023-10-13T16:09:13;16.60;99.90
42617;DHT22;28250;52.320;0.360;2023-10-13T16:11:43;16.60;99.90
42617;DHT22;28250;52.320;0.360;2023-10-13T16:14:10;16.40;99.90
42617;DHT22;28250;52.320;0.360;2023-10-13T16:16:37;16.40;99.90
42617;DHT22;28250;52.320;0.360;2023-10-13T16:19:03;16.20;99.90
42617;DHT22;28250;52.320;0.360;2023-10-13T16:21:30;16.20;99.90
42617;DHT22;28250;52.320;0.360;2023-10-13T16:23:59;16.10;99.90
42617;DHT22;28250;52.320;0.360;2023-10-13T16:26:25;16.10;99.90
42617;DHT22;28250;52.320;0.360;2023-10-13T16:28:52;16.10;99.90
42617;DHT22;28250;52.320;0.360;2023-10-13T16:31:24;15.10;99.90
42617;DHT22;28250;52.320;0.360;2023-10-13T16:33:56;14.80;99.90